Fortune Wing — VRHW2 — position and weather

sailwx.info

Track history (hours):
 
Tides and Currents Weather Stations Pressure Air Temp Water Temp Dewpoint Dewpoint Depression Visibility Wind Speed Wind Dir Waves Ship Positions

Fortune Wing

Last reported at 2017-Dec-15 16:03 UTC. Time now 2017-Dec-18 16:39 UTC.
Position N 36°01' W 005°12'.

Length 190 m; draft 11.5 m.

Type: Cargo ship. MMSI: 477389500.

Date/timePositionNaut miles runAvg speedWind from/ knotsBaromVisibWave heightAir tempDewpointWater temp
2017-Dec-15 16:03N 36°01' W 005°12'114.6
2017-Dec-15 16:00N 36°01' W 005°13'714.5
2017-Dec-15 15:30N 35°59' W 005°21'715.0
2017-Dec-15 15:00N 35°57' W 005°30'  
2017-Dec-13 06:05N 29°01' W 012°58'2 5.8
2017-Dec-13 05:42N 28°59' W 012°59'1 6.1
2017-Dec-13 05:29N 28°58' W 012°60'4 6.2
2017-Dec-13 04:54N 28°55' W 013°02'5 6.0
2017-Dec-13 04:07N 28°51' W 013°05'1 5.3
2017-Dec-13 03:51N 28°49' W 013°06'2 6.1
2017-Dec-13 03:28N 28°47' W 013°07'3 6.2
2017-Dec-13 03:00N 28°45' W 013°09'3 6.4
2017-Dec-13 02:29N 28°42' W 013°11'3 6.8
2017-Dec-13 01:58N 28°39' W 013°13'3 7.2
2017-Dec-13 01:30N 28°36' W 013°15'4 7.3
2017-Dec-13 00:59N 28°33' W 013°17'4 7.5
2017-Dec-13 00:30N 28°30' W 013°19'5 7.9
2017-Dec-12 23:53N 28°26' W 013°22'  
Track history (hours):
 
Tides and Currents Weather Stations Pressure Air Temp Water Temp Dewpoint Dewpoint Depression Visibility Wind Speed Wind Dir Waves Ship Positions

Fortune Wing

Last reported at 2017-Dec-15 16:03 UTC. Time now 2017-Dec-18 16:39 UTC.
Position N 36°01' W 005°12'.

Length 190 m; draft 11.5 m.

Type: Cargo ship. MMSI: 477389500.

Date/timePositionNaut miles runAvg speedWind from/ knotsBaromVisibWave heightAir tempDewpointWater temp
2017-Dec-15 16:03N 36°01' W 005°12'114.6
2017-Dec-15 16:00N 36°01' W 005°13'714.5
2017-Dec-15 15:30N 35°59' W 005°21'715.0
2017-Dec-15 15:00N 35°57' W 005°30'  
2017-Dec-13 06:05N 29°01' W 012°58'2 5.8
2017-Dec-13 05:42N 28°59' W 012°59'1 6.1
2017-Dec-13 05:29N 28°58' W 012°60'4 6.2
2017-Dec-13 04:54N 28°55' W 013°02'5 6.0
2017-Dec-13 04:07N 28°51' W 013°05'1 5.3
2017-Dec-13 03:51N 28°49' W 013°06'2 6.1
2017-Dec-13 03:28N 28°47' W 013°07'3 6.2
2017-Dec-13 03:00N 28°45' W 013°09'3 6.4
2017-Dec-13 02:29N 28°42' W 013°11'3 6.8
2017-Dec-13 01:58N 28°39' W 013°13'3 7.2
2017-Dec-13 01:30N 28°36' W 013°15'4 7.3
2017-Dec-13 00:59N 28°33' W 013°17'4 7.5
2017-Dec-13 00:30N 28°30' W 013°19'5 7.9
2017-Dec-12 23:53N 28°26' W 013°22'  

Dump ship's entire track history